Airfield :
LOGIN :

Register | Disclaimer

   EN    FR    IT 

 










Legend :    VFR   Marginal VFR   IFR   Intensive IFR   Very Intensive IFR
Visi :
Ceiling :
>= 8 km
>= 3000ft
5 to 8 km
1000 to 3000 ft
1500m to 5 km
500 to 1000 ft
800 to 1500m
200 to 500 ft
< 800m
< 200 ft
Symbols :   Thunderstorms  Fog  Heavy snow  Heavy precipitations  Wind > 20 kt
SIGMETs :     Misc.  Thunderstorms  Icing  Turbulence  Mountain Waves  Volcanic Ashes






- Airport Elevation : 238 ft
- IATA code : FAB


EGLF - Farnborough

CURRENT METAR :
  • 070350Z AUTO 32003KT 7000 OVC005/// 02/01 Q1023

EXPIRED METARs :
  • 070320Z AUTO 33004KT 290V350 8000 OVC005/// 02/01 Q1023
  • 070250Z AUTO 29003KT 260V320 6000 BKN007/// 01/00 Q1023
  • 070220Z AUTO 24002KT 6000 OVC008/// 00/00 Q1023
  • 070150Z AUTO 24002KT 4300 BR SCT009/// BKN022/// 00/M01 Q1023
  • 070120Z AUTO VRB02KT 6000 NCD 01/00 Q1023

Expired Forecast.
ATIS : +44 09063 800 400 (*282)



MET'MAP, your aeronautical weather chart ! - Copyright ORBIFLY December 2007 - Disclaimer

ORBIFLY MET'MAP TEAM :

Programming & Development : Alexandra Zaïnal
Original concept : Baudouin d'Aumeries
Technical & hardware support : Manuel Goepfert
Assistance : Marc-Olivier Méhu




SOURCES & CREDITS :

   NOAA